createdAt,value
2016-05-05T00:00:12.726Z,1006.67
2016-05-05T00:01:12.932Z,1006.7
2016-05-05T00:02:12.935Z,1006.67
2016-05-05T00:03:12.734Z,1006.69
2016-05-05T00:04:12.737Z,1006.69
2016-05-05T00:05:12.739Z,1006.7
2016-05-05T00:06:12.742Z,1006.68
2016-05-05T00:07:12.745Z,1006.68
2016-05-05T00:08:12.747Z,1006.67
2016-05-05T00:09:13.267Z,1006.65
2016-05-05T00:10:12.785Z,1006.63
2016-05-05T00:11:12.756Z,1006.66
2016-05-05T00:12:12.758Z,1006.64
2016-05-05T00:13:12.761Z,1006.66
2016-05-05T00:14:12.749Z,1006.63
2016-05-05T00:15:12.766Z,1006.59
2016-05-05T00:16:12.754Z,1006.64
2016-05-05T00:17:12.756Z,1006.62
2016-05-05T00:18:12.760Z,1006.64
2016-05-05T00:19:12.762Z,1006.62
2016-05-05T00:21:12.768Z,1006.6
2016-05-05T00:22:12.770Z,1006.61
2016-05-05T00:23:12.773Z,1006.62
2016-05-05T00:24:12.776Z,1006.55
2016-05-05T00:25:12.778Z,1006.57
2016-05-05T00:26:12.781Z,1006.53
2016-05-05T00:27:12.784Z,1006.53
2016-05-05T00:28:12.817Z,1006.51
2016-05-05T00:29:13.023Z,1006.51
2016-05-05T00:30:12.791Z,1006.51
2016-05-05T00:31:12.998Z,1006.52
2016-05-05T00:32:12.797Z,1006.47
2016-05-05T00:33:12.799Z,1006.49
2016-05-05T00:34:13.006Z,1006.47
2016-05-05T00:35:12.805Z,1006.51
2016-05-05T00:36:12.808Z,1006.51
2016-05-05T00:37:12.811Z,1006.51
2016-05-05T00:38:13.047Z,1006.54
2016-05-05T00:39:13.409Z,1006.54
2016-05-05T00:40:12.818Z,1006.51
2016-05-05T00:41:12.821Z,1006.49
2016-05-05T00:42:12.824Z,1006.56
2016-05-05T00:43:12.827Z,1006.55
2016-05-05T00:44:12.829Z,1006.57
2016-05-05T00:45:12.832Z,1006.57
2016-05-05T00:46:12.834Z,1006.52
2016-05-05T00:47:12.838Z,1006.53
2016-05-05T00:48:12.840Z,1006.52
2016-05-05T00:49:12.843Z,1006.52
2016-05-05T00:50:12.876Z,1006.5
2016-05-05T00:51:12.864Z,1006.52
2016-05-05T00:53:12.854Z,1006.46
2016-05-05T00:54:12.918Z,1006.52
2016-05-05T00:55:12.859Z,1006.48
2016-05-05T00:56:12.846Z,1006.49
2016-05-05T00:57:12.865Z,1006.48
2016-05-05T00:58:12.852Z,1006.48
2016-05-05T00:59:12.854Z,1006.43
2016-05-05T01:00:12.856Z,1006.42
2016-05-05T01:01:12.875Z,1006.43
2016-05-05T01:02:12.862Z,1006.46
2016-05-05T01:03:12.880Z,1006.44
2016-05-05T01:04:12.883Z,1006.46
2016-05-05T01:05:12.886Z,1006.42
2016-05-05T01:06:12.873Z,1006.44
2016-05-05T01:07:12.875Z,1006.42
2016-05-05T01:08:12.878Z,1006.43
2016-05-05T01:09:12.896Z,1006.42
2016-05-05T01:10:12.883Z,1006.44
2016-05-05T01:11:12.886Z,1006.41
2016-05-05T01:12:12.904Z,1006.43
2016-05-05T01:13:12.875Z,1006.42
2016-05-05T01:14:12.878Z,1006.38
2016-05-05T01:15:12.897Z,1006.4
2016-05-05T01:16:12.900Z,1006.38
2016-05-05T01:17:12.902Z,1006.4
2016-05-05T01:19:12.907Z,1006.39
2016-05-05T01:20:12.910Z,1006.41
2016-05-05T01:21:12.913Z,1006.41
2016-05-05T01:23:12.902Z,1006.4
2016-05-05T01:24:12.905Z,1006.41
2016-05-05T01:25:12.908Z,1006.41
2016-05-05T01:26:12.911Z,1006.42
2016-05-05T01:27:12.929Z,1006.42
2016-05-05T01:28:13.151Z,1006.43
2016-05-05T01:29:12.903Z,1006.44
2016-05-05T01:30:12.906Z,1006.44
2016-05-05T01:31:12.909Z,1006.42
2016-05-05T01:32:12.912Z,1006.42
2016-05-05T01:33:12.914Z,1006.45
2016-05-05T01:34:12.917Z,1006.38
2016-05-05T01:35:12.920Z,1006.38
2016-05-05T01:36:12.923Z,1006.37
2016-05-05T01:37:12.909Z,1006.4
2016-05-05T01:38:12.912Z,1006.41
2016-05-05T01:39:13.117Z,1006.39
2016-05-05T01:40:12.948Z,1006.4
2016-05-05T01:41:12.920Z,1006.38
2016-05-05T01:42:12.923Z,1006.4
2016-05-05T01:43:12.925Z,1006.43
2016-05-05T01:44:12.913Z,1006.44
2016-05-05T01:45:12.962Z,1006.36
2016-05-05T01:46:13.152Z,1006.39
2016-05-05T01:47:12.951Z,1006.41
2016-05-05T01:48:13.126Z,1006.38
2016-05-05T01:49:12.926Z,1006.37
2016-05-05T01:51:13.166Z,1006.36
2016-05-05T01:52:12.939Z,1006.36
2016-05-05T01:53:12.984Z,1006.34
2016-05-05T01:54:13.030Z,1006.36
2016-05-05T01:55:13.075Z,1006.35
2016-05-05T01:56:13.339Z,1006.33
2016-05-05T01:57:13.152Z,1006.35
2016-05-05T01:58:13.170Z,1006.33
2016-05-05T01:59:13.204Z,1006.35
2016-05-05T02:00:13.237Z,1006.36
2016-05-05T02:01:13.209Z,1006.32
2016-05-05T02:02:13.238Z,1006.33
2016-05-05T02:03:13.231Z,1006.32
2016-05-05T02:05:13.248Z,1006.3
2016-05-05T02:06:13.256Z,1006.36
2016-05-05T02:07:13.247Z,1006.35
2016-05-05T02:08:13.252Z,1006.36
2016-05-05T02:09:14.600Z,1006.36
2016-05-05T02:10:13.276Z,1006.39
2016-05-05T02:11:13.265Z,1006.36
2016-05-05T02:12:13.473Z,1006.37
2016-05-05T02:13:13.274Z,1006.36
2016-05-05T02:14:13.494Z,1006.36
2016-05-05T02:15:13.265Z,1006.33
2016-05-05T02:16:13.267Z,1006.31
2016-05-05T02:17:13.287Z,1006.33
2016-05-05T02:18:13.462Z,1006.3
2016-05-05T02:19:13.308Z,1006.29
2016-05-05T02:20:13.264Z,1006.29
2016-05-05T02:21:13.267Z,1006.27
2016-05-05T02:22:13.271Z,1006.23
2016-05-05T02:23:13.275Z,1006.25
2016-05-05T02:24:13.277Z,1006.24
2016-05-05T02:25:13.280Z,1006.26
2016-05-05T02:26:13.282Z,1006.27
2016-05-05T02:27:13.270Z,1006.31
2016-05-05T02:28:13.304Z,1006.32
2016-05-05T02:29:13.291Z,1006.32
2016-05-05T02:30:13.513Z,1006.27
2016-05-05T02:31:13.500Z,1006.25
2016-05-05T02:32:13.268Z,1006.28
2016-05-05T02:33:13.286Z,1006.3
2016-05-05T02:34:13.273Z,1006.34
2016-05-05T02:35:13.292Z,1006.3
2016-05-05T02:36:13.294Z,1006.32
2016-05-05T02:37:13.281Z,1006.35
2016-05-05T02:38:13.269Z,1006.41
2016-05-05T02:39:13.522Z,1006.42
2016-05-05T02:40:13.275Z,1006.43
2016-05-05T02:41:13.292Z,1006.44
2016-05-05T02:42:13.280Z,1006.41
2016-05-05T02:43:13.282Z,1006.38
2016-05-05T02:44:13.286Z,1006.46
2016-05-05T02:45:13.475Z,1006.42
2016-05-05T02:46:13.274Z,1006.38
2016-05-05T02:47:13.480Z,1006.43
2016-05-05T02:48:13.280Z,1006.43
2016-05-05T02:49:13.282Z,1006.41
2016-05-05T02:50:13.286Z,1006.43
2016-05-05T02:51:13.913Z,1006.41
2016-05-05T02:52:13.275Z,1006.41
2016-05-05T02:53:13.293Z,1006.43
2016-05-05T02:54:13.280Z,1006.44
2016-05-05T02:55:13.268Z,1006.43
2016-05-05T02:56:13.286Z,1006.42
2016-05-05T02:57:13.304Z,1006.45
2016-05-05T02:58:13.291Z,1006.48
2016-05-05T02:59:13.279Z,1006.45
2016-05-05T03:00:13.282Z,1006.47
2016-05-05T03:01:13.284Z,1006.53
2016-05-05T03:02:13.271Z,1006.5
2016-05-05T03:03:13.289Z,1006.51
2016-05-05T03:04:13.276Z,1006.5
2016-05-05T03:05:13.482Z,1006.49
2016-05-05T03:06:13.281Z,1006.5
2016-05-05T03:07:13.268Z,1006.51
2016-05-05T03:08:13.271Z,1006.5
2016-05-05T03:09:13.274Z,1006.5
2016-05-05T03:10:13.276Z,1006.56
2016-05-05T03:11:13.278Z,1006.51
2016-05-05T03:12:13.266Z,1006.53
2016-05-05T03:13:13.269Z,1006.51
2016-05-05T03:14:13.272Z,1006.49
2016-05-05T03:15:13.274Z,1006.49
2016-05-05T03:16:13.277Z,1006.55
2016-05-05T03:17:13.280Z,1006.52
2016-05-05T03:18:13.298Z,1006.53
2016-05-05T03:19:13.270Z,1006.56
2016-05-05T03:20:13.272Z,1006.54
2016-05-05T03:21:13.274Z,1006.51
2016-05-05T03:22:13.277Z,1006.56
2016-05-05T03:23:13.280Z,1006.56
2016-05-05T03:24:13.533Z,1006.56
2016-05-05T03:25:13.271Z,1006.54
2016-05-05T03:26:13.476Z,1006.6
2016-05-05T03:27:13.276Z,1006.54
2016-05-05T03:28:13.278Z,1006.57
2016-05-05T03:29:13.266Z,1006.59
2016-05-05T03:30:13.284Z,1006.57
2016-05-05T03:31:13.473Z,1006.54
2016-05-05T03:33:13.667Z,1006.58
2016-05-05T03:34:13.263Z,1006.6
2016-05-05T03:35:13.266Z,1006.62
2016-05-05T03:36:13.471Z,1006.64
2016-05-05T03:37:13.256Z,1006.61
2016-05-05T03:38:13.290Z,1006.62
2016-05-05T03:39:13.698Z,1006.6
2016-05-05T03:40:13.279Z,1006.57
2016-05-05T03:41:13.266Z,1006.62
2016-05-05T03:42:13.269Z,1006.6
2016-05-05T03:43:13.272Z,1006.6
2016-05-05T03:44:13.259Z,1006.66
2016-05-05T03:45:13.464Z,1006.66
2016-05-05T03:46:13.264Z,1006.67
2016-05-05T03:47:13.501Z,1006.7
2016-05-05T03:48:13.254Z,1006.68
2016-05-05T03:49:13.256Z,1006.71
2016-05-05T03:50:13.258Z,1006.73
2016-05-05T03:51:13.261Z,1006.7
2016-05-05T03:52:13.264Z,1006.76
2016-05-05T03:53:13.485Z,1006.8
2016-05-05T03:54:13.254Z,1006.8
2016-05-05T03:55:13.257Z,1006.79
2016-05-05T03:56:13.260Z,1006.84
2016-05-05T03:57:13.263Z,1006.81
2016-05-05T03:58:13.265Z,1006.82
2016-05-05T03:59:13.268Z,1006.81
2016-05-05T04:00:13.285Z,1006.81
2016-05-05T04:01:13.273Z,1006.85
2016-05-05T04:02:13.245Z,1006.84
2016-05-05T04:03:13.262Z,1006.87
2016-05-05T04:04:13.250Z,1006.84
2016-05-05T04:05:13.253Z,1006.9
2016-05-05T04:06:13.256Z,1006.88
2016-05-05T04:07:13.259Z,1006.87
2016-05-05T04:08:13.261Z,1006.91
2016-05-05T04:09:14.607Z,1006.88
2016-05-05T04:10:13.250Z,1006.92
2016-05-05T04:11:13.440Z,1006.86
2016-05-05T04:12:13.256Z,1006.85
2016-05-05T04:13:13.259Z,1006.82
2016-05-05T04:14:13.245Z,1006.85
2016-05-05T04:15:13.248Z,1006.85
2016-05-05T04:16:13.267Z,1006.82
2016-05-05T04:17:13.286Z,1006.81
2016-05-05T04:18:13.241Z,1006.85
2016-05-05T04:19:13.244Z,1006.84
2016-05-05T04:20:13.246Z,1006.88
2016-05-05T04:21:13.249Z,1006.86
2016-05-05T04:22:13.252Z,1006.98
2016-05-05T04:23:13.441Z,1006.88
2016-05-05T04:24:13.241Z,1006.95
2016-05-05T04:25:13.244Z,1006.9
2016-05-05T04:26:13.263Z,1006.89
2016-05-05T04:27:13.250Z,1006.89
2016-05-05T04:28:13.236Z,1006.87
2016-05-05T04:29:13.255Z,1006.83
2016-05-05T04:30:13.273Z,1006.87
2016-05-05T04:31:13.244Z,1006.84
2016-05-05T04:32:13.247Z,1006.86
2016-05-05T04:33:13.249Z,1006.85
2016-05-05T04:34:13.252Z,1006.86
2016-05-05T04:35:13.254Z,1006.88
2016-05-05T04:36:13.243Z,1006.83
2016-05-05T04:37:13.245Z,1006.85
2016-05-05T04:38:13.248Z,1006.89
2016-05-05T04:39:13.438Z,1006.88
2016-05-05T04:40:13.237Z,1006.88
2016-05-05T04:42:13.243Z,1006.93
2016-05-05T04:43:13.448Z,1006.92
2016-05-05T04:44:13.467Z,1006.9
2016-05-05T04:45:13.267Z,1006.91
2016-05-05T04:46:13.239Z,1006.93
2016-05-05T04:47:13.241Z,1006.89
2016-05-05T04:48:13.243Z,1006.9
2016-05-05T04:49:13.247Z,1006.82
2016-05-05T04:50:13.249Z,1006.86
2016-05-05T04:51:13.236Z,1006.89
2016-05-05T04:52:13.254Z,1006.85
2016-05-05T04:53:13.258Z,1006.87
2016-05-05T04:54:13.244Z,1006.88
2016-05-05T04:55:13.246Z,1006.85
2016-05-05T04:56:13.250Z,1006.85
2016-05-05T04:57:13.252Z,1006.88
2016-05-05T04:58:13.457Z,1006.91
2016-05-05T04:59:13.258Z,1006.85
2016-05-05T05:00:13.276Z,1006.85
2016-05-05T05:01:13.247Z,1006.83
2016-05-05T05:02:13.250Z,1006.83
2016-05-05T05:03:13.252Z,1006.81
2016-05-05T05:04:13.254Z,1006.79
2016-05-05T05:05:13.257Z,1006.8
2016-05-05T05:06:13.261Z,1006.76
2016-05-05T05:07:13.295Z,1006.77
2016-05-05T05:08:13.454Z,1006.79
2016-05-05T05:09:13.253Z,1006.82
2016-05-05T05:10:13.271Z,1006.84
2016-05-05T05:11:13.258Z,1006.83
2016-05-05T05:12:13.262Z,1006.83
2016-05-05T05:13:13.264Z,1006.89
2016-05-05T05:14:13.267Z,1006.9
2016-05-05T05:15:13.285Z,1006.93
2016-05-05T05:16:13.475Z,1006.94
2016-05-05T05:17:13.274Z,1006.94
2016-05-05T05:18:13.292Z,1006.93
2016-05-05T05:19:13.264Z,1006.96
2016-05-05T05:20:13.267Z,1006.95
2016-05-05T05:21:13.286Z,1006.98
2016-05-05T05:22:13.303Z,1006.95
2016-05-05T05:23:13.275Z,1006.99
2016-05-05T05:24:13.278Z,1006.92
2016-05-05T05:25:13.280Z,1006.89
2016-05-05T05:26:13.283Z,1006.92
2016-05-05T05:27:13.269Z,1006.94
2016-05-05T05:28:13.288Z,1006.92
2016-05-05T05:29:13.275Z,1006.94
2016-05-05T05:30:13.278Z,1006.94
2016-05-05T05:31:13.515Z,1006.9
2016-05-05T05:32:13.315Z,1006.89
2016-05-05T05:33:13.286Z,1006.89
2016-05-05T05:34:13.288Z,1006.89
2016-05-05T05:35:13.291Z,1006.89
2016-05-05T05:36:13.294Z,1006.88
2016-05-05T05:37:13.296Z,1006.91
2016-05-05T05:38:13.315Z,1006.89
2016-05-05T05:39:13.302Z,1006.9
2016-05-05T05:40:13.305Z,1006.9
2016-05-05T05:41:13.307Z,1006.9
2016-05-05T05:42:13.295Z,1006.88
2016-05-05T05:43:13.297Z,1006.88
2016-05-05T05:44:13.300Z,1006.89
2016-05-05T05:45:13.303Z,1006.92
2016-05-05T05:46:13.306Z,1006.94
2016-05-05T05:47:13.339Z,1006.93
2016-05-05T05:48:13.311Z,1006.9
2016-05-05T05:49:13.314Z,1006.91
2016-05-05T05:50:13.316Z,1006.87
2016-05-05T05:51:13.334Z,1006.87
2016-05-05T05:52:13.322Z,1006.89
2016-05-05T05:53:13.324Z,1006.86
2016-05-05T05:54:13.546Z,1006.89
2016-05-05T05:55:13.330Z,1006.92
2016-05-05T05:56:13.332Z,1006.92
2016-05-05T05:57:13.335Z,1006.92
2016-05-05T05:58:13.338Z,1006.95
2016-05-05T05:59:13.341Z,1006.96
2016-05-05T06:00:13.343Z,1006.98
2016-05-05T06:01:13.346Z,1006.98
2016-05-05T06:02:13.348Z,1006.96
2016-05-05T06:03:13.351Z,1007
2016-05-05T06:04:13.354Z,1007.02
2016-05-05T06:05:13.357Z,1006.96
2016-05-05T06:06:13.360Z,1007.06
2016-05-05T06:07:13.362Z,1007.04
2016-05-05T06:08:13.348Z,1007.04
2016-05-05T06:09:13.867Z,1007.07
2016-05-05T06:10:13.590Z,1007.12
2016-05-05T06:11:13.373Z,1007.15
2016-05-05T06:12:13.390Z,1007.12
2016-05-05T06:13:13.378Z,1007.12
2016-05-05T06:14:13.381Z,1007.1
2016-05-05T06:15:13.398Z,1007.15
2016-05-05T06:16:13.386Z,1007.17
2016-05-05T06:17:13.389Z,1007.15
2016-05-05T06:18:13.594Z,1007.19
2016-05-05T06:19:13.394Z,1007.16
2016-05-05T06:20:13.397Z,1007.21
2016-05-05T06:21:13.400Z,1007.21
2016-05-05T06:22:13.402Z,1007.23
2016-05-05T06:23:13.383Z,1007.25
2016-05-05T06:24:13.402Z,1007.26
2016-05-05T06:25:13.404Z,1007.28
2016-05-05T06:26:13.595Z,1007.29
2016-05-05T06:27:13.410Z,1007.31
2016-05-05T06:28:13.412Z,1007.31
2016-05-05T06:29:13.415Z,1007.34
2016-05-05T06:30:13.418Z,1007.31
2016-05-05T06:31:13.655Z,1007.26
2016-05-05T06:32:13.424Z,1007.21
2016-05-05T06:33:13.426Z,1007.21
2016-05-05T06:34:13.663Z,1007.22
2016-05-05T06:35:13.431Z,1007.21
2016-05-05T06:36:13.434Z,1007.22
2016-05-05T06:37:13.437Z,1007.24
2016-05-05T06:38:13.439Z,1007.28
2016-05-05T06:39:13.442Z,1007.29
2016-05-05T06:40:13.445Z,1007.31
2016-05-05T06:41:13.447Z,1007.26
2016-05-05T06:42:13.451Z,1007.27
2016-05-05T06:43:13.453Z,1007.23
2016-05-05T06:44:13.456Z,1007.27
2016-05-05T06:45:13.458Z,1007.26
2016-05-05T06:46:13.461Z,1007.24
2016-05-05T06:47:13.464Z,1007.26
2016-05-05T06:48:13.466Z,1007.27
2016-05-05T06:49:13.469Z,1007.26
2016-05-05T06:50:13.472Z,1007.24
2016-05-05T06:51:13.474Z,1007.24
2016-05-05T06:52:13.477Z,1007.28
2016-05-05T06:53:13.480Z,1007.32
2016-05-05T06:54:13.499Z,1007.3
2016-05-05T06:55:13.501Z,1007.31
2016-05-05T06:56:13.504Z,1007.3
2016-05-05T06:57:13.507Z,1007.32
2016-05-05T06:58:13.524Z,1007.32
2016-05-05T06:59:13.746Z,1007.33
2016-05-05T07:00:13.514Z,1007.32
2016-05-05T07:01:13.549Z,1007.3
2016-05-05T07:02:13.518Z,1007.27
2016-05-05T07:03:13.520Z,1007.3
2016-05-05T07:04:13.523Z,1007.3
2016-05-05T07:05:13.557Z,1007.34
2016-05-05T07:06:13.544Z,1007.25
2016-05-05T07:07:13.546Z,1007.27
2016-05-05T07:08:13.549Z,1007.2
2016-05-05T07:09:13.739Z,1007.18
2016-05-05T07:10:13.554Z,1007.18
2016-05-05T07:11:13.557Z,1007.22
2016-05-05T07:12:13.559Z,1007.23
2016-05-05T07:13:13.562Z,1007.2
2016-05-05T07:14:13.565Z,1007.18
2016-05-05T07:15:13.568Z,1007.22
2016-05-05T07:16:13.586Z,1007.2
2016-05-05T07:17:13.588Z,1007.22
2016-05-05T07:18:13.592Z,1007.22
2016-05-05T07:19:13.594Z,1007.2
2016-05-05T07:20:13.597Z,1007.25
2016-05-05T07:21:13.599Z,1007.28
2016-05-05T07:22:13.602Z,1007.28
2016-05-05T07:23:13.620Z,1007.29
2016-05-05T07:24:13.622Z,1007.33
2016-05-05T07:25:13.610Z,1007.39
2016-05-05T07:26:13.628Z,1007.4
2016-05-05T07:27:13.616Z,1007.44
2016-05-05T07:28:13.633Z,1007.46
2016-05-05T07:29:13.636Z,1007.47
2016-05-05T07:30:13.639Z,1007.47
2016-05-05T07:31:13.658Z,1007.48
2016-05-05T07:32:13.644Z,1007.5
2016-05-05T07:33:13.679Z,1007.55
2016-05-05T07:34:13.666Z,1007.55
2016-05-05T07:35:13.652Z,1007.58
2016-05-05T07:36:13.687Z,1007.53
2016-05-05T07:37:13.674Z,1007.48
2016-05-05T07:38:13.676Z,1007.44
2016-05-05T07:39:13.679Z,1007.43
2016-05-05T07:40:13.681Z,1007.47
2016-05-05T07:41:13.685Z,1007.47
2016-05-05T07:42:13.718Z,1007.57
2016-05-05T07:43:13.705Z,1007.54
2016-05-05T07:44:13.724Z,1007.58
2016-05-05T07:45:13.711Z,1007.57
2016-05-05T07:46:13.729Z,1007.59
2016-05-05T07:47:13.934Z,1007.55
2016-05-05T07:48:13.734Z,1007.53
2016-05-05T07:49:13.737Z,1007.56
2016-05-05T07:50:13.739Z,1007.55
2016-05-05T07:51:13.743Z,1007.59
2016-05-05T07:52:13.761Z,1007.59
2016-05-05T07:53:13.764Z,1007.61
2016-05-05T07:54:13.766Z,1007.67
2016-05-05T07:55:13.769Z,1007.67
2016-05-05T07:56:13.787Z,1007.64
2016-05-05T07:57:13.790Z,1007.61
2016-05-05T07:58:13.793Z,1007.63
2016-05-05T07:59:13.796Z,1007.68
2016-05-05T08:00:13.814Z,1007.66
2016-05-05T08:01:13.847Z,1007.66
2016-05-05T08:02:13.819Z,1007.67
2016-05-05T08:03:13.837Z,1007.65
2016-05-05T08:04:13.840Z,1007.6
2016-05-05T08:05:13.843Z,1007.59
2016-05-05T08:06:13.846Z,1007.55
2016-05-05T08:07:13.864Z,1007.56
2016-05-05T08:08:14.070Z,1007.54
2016-05-05T08:09:13.868Z,1007.52
2016-05-05T08:10:13.872Z,1007.5
2016-05-05T08:11:13.890Z,1007.5
2016-05-05T08:12:13.893Z,1007.48
2016-05-05T08:13:13.895Z,1007.47
2016-05-05T08:14:13.898Z,1007.52
2016-05-05T08:15:13.917Z,1007.49
2016-05-05T08:16:13.920Z,1007.54
2016-05-05T08:17:13.922Z,1007.56
2016-05-05T08:18:13.939Z,1007.53
2016-05-05T08:19:13.943Z,1007.51
2016-05-05T08:20:13.945Z,1007.57
2016-05-05T08:21:13.948Z,1007.52
2016-05-05T08:22:13.951Z,1007.57
2016-05-05T08:23:13.970Z,1007.55
2016-05-05T08:24:13.972Z,1007.55
2016-05-05T08:25:13.991Z,1007.57
2016-05-05T08:26:13.993Z,1007.57
2016-05-05T08:27:14.011Z,1007.61
2016-05-05T08:29:14.017Z,1007.6
2016-05-05T08:31:14.022Z,1007.62
2016-05-05T08:32:14.056Z,1007.65
2016-05-05T08:33:14.058Z,1007.67
2016-05-05T08:34:14.061Z,1007.7
2016-05-05T08:35:14.049Z,1007.71
2016-05-05T08:36:14.066Z,1007.73
2016-05-05T08:37:14.069Z,1007.71
2016-05-05T08:38:14.088Z,1007.69
2016-05-05T08:39:14.090Z,1007.69
2016-05-05T08:40:14.109Z,1007.68
2016-05-05T08:41:14.111Z,1007.72
2016-05-05T08:42:14.114Z,1007.75
2016-05-05T08:43:14.117Z,1007.69
2016-05-05T08:44:14.135Z,1007.69
2016-05-05T08:45:14.340Z,1007.66
2016-05-05T08:46:14.141Z,1007.7
2016-05-05T08:47:14.159Z,1007.7
2016-05-05T08:48:14.161Z,1007.71
2016-05-05T08:49:14.164Z,1007.69
2016-05-05T08:50:14.183Z,1007.73
2016-05-05T08:51:14.186Z,1007.7
2016-05-05T08:52:14.188Z,1007.7
2016-05-05T08:53:14.206Z,1007.66
2016-05-05T08:54:14.209Z,1007.61
2016-05-05T08:55:14.227Z,1007.66
2016-05-05T08:56:14.230Z,1007.65
2016-05-05T08:57:14.248Z,1007.63
2016-05-05T08:58:14.251Z,1007.63
2016-05-05T08:59:14.253Z,1007.59
2016-05-05T09:00:14.271Z,1007.62
2016-05-05T09:01:14.291Z,1007.61
2016-05-05T09:02:14.294Z,1007.58
2016-05-05T09:03:14.295Z,1007.55
2016-05-05T09:04:14.314Z,1007.61
2016-05-05T09:05:14.316Z,1007.62
2016-05-05T09:06:14.319Z,1007.64
2016-05-05T09:07:14.353Z,1007.67
2016-05-05T09:08:14.371Z,1007.65
2016-05-05T09:09:14.405Z,1007.66
2016-05-05T09:10:14.346Z,1007.67
2016-05-05T09:11:14.364Z,1007.69
2016-05-05T09:12:14.617Z,1007.73
2016-05-05T09:13:14.385Z,1007.79
2016-05-05T09:14:14.404Z,1007.82
2016-05-05T09:15:14.406Z,1007.8
2016-05-05T09:16:14.424Z,1007.81
2016-05-05T09:17:14.427Z,1007.78
2016-05-05T09:18:14.462Z,1007.82
2016-05-05T09:19:14.635Z,1007.75
2016-05-05T09:20:14.451Z,1007.74
2016-05-05T09:21:14.453Z,1007.76
2016-05-05T09:22:14.472Z,1007.71
2016-05-05T09:23:14.475Z,1007.71
2016-05-05T09:24:14.570Z,1007.64
2016-05-05T09:25:14.495Z,1007.61
2016-05-05T09:26:14.513Z,1007.59
2016-05-05T09:27:14.517Z,1007.57
2016-05-05T09:28:14.550Z,1007.52
2016-05-05T09:29:14.538Z,1007.49
2016-05-05T09:30:14.542Z,1007.49
2016-05-05T09:31:14.549Z,1007.44
2016-05-05T09:32:14.554Z,1007.41
2016-05-05T09:33:14.572Z,1007.4
2016-05-05T09:34:14.575Z,1007.41
2016-05-05T09:35:14.593Z,1007.4
2016-05-05T09:36:14.596Z,1007.4
2016-05-05T09:37:14.599Z,1007.4
2016-05-05T09:38:14.616Z,1007.45
2016-05-05T09:39:14.681Z,1007.43
2016-05-05T09:40:14.622Z,1007.45
2016-05-05T09:41:14.640Z,1007.44
2016-05-05T09:42:14.648Z,1007.43
2016-05-05T09:43:14.656Z,1007.42
2016-05-05T09:44:14.659Z,1007.39
2016-05-05T09:45:14.676Z,1007.39
2016-05-05T09:46:14.709Z,1007.39
2016-05-05T09:47:14.698Z,1007.39
2016-05-05T09:48:16.590Z,1007.34
2016-05-05T09:49:14.718Z,1007.33
2016-05-05T09:50:14.768Z,1007.27
2016-05-05T09:51:14.723Z,1007.2
2016-05-05T09:52:14.742Z,1007.14
2016-05-05T09:53:14.745Z,1007.06
2016-05-05T09:54:15.091Z,1007.02
2016-05-05T09:55:14.766Z,1006.99
2016-05-05T09:56:14.769Z,1007
2016-05-05T09:57:14.786Z,1006.89
2016-05-05T09:58:14.789Z,1006.86
2016-05-05T10:00:14.841Z,1006.86
2016-05-05T10:01:14.829Z,1006.88
2016-05-05T10:02:14.847Z,1006.82
2016-05-05T10:03:14.849Z,1006.86
2016-05-05T10:04:14.852Z,1006.86
2016-05-05T10:05:14.870Z,1006.79
2016-05-05T10:06:14.873Z,1006.81
2016-05-05T10:07:14.876Z,1006.86
2016-05-05T10:08:14.879Z,1006.85
2016-05-05T10:09:14.896Z,1006.78
2016-05-05T10:10:15.181Z,1006.76
2016-05-05T10:11:14.965Z,1006.76
2016-05-05T10:12:14.920Z,1006.77
2016-05-05T10:13:15.143Z,1006.75
2016-05-05T10:14:14.942Z,1006.76
2016-05-05T10:15:14.959Z,1006.72
2016-05-05T10:16:14.963Z,1006.76
2016-05-05T10:17:14.981Z,1006.76
2016-05-05T10:18:15.170Z,1006.74
2016-05-05T10:19:14.987Z,1006.72
2016-05-05T10:20:15.036Z,1006.72
2016-05-05T10:21:15.007Z,1006.73
2016-05-05T10:22:15.011Z,1006.74
2016-05-05T10:23:15.028Z,1006.72
2016-05-05T10:24:15.031Z,1006.69
2016-05-05T10:25:15.049Z,1006.67
2016-05-05T10:26:15.052Z,1006.63
2016-05-05T10:27:15.055Z,1006.59
2016-05-05T10:28:15.073Z,1006.63
2016-05-05T10:29:15.075Z,1006.63
2016-05-05T10:30:15.094Z,1006.63
2016-05-05T10:31:15.112Z,1006.53
2016-05-05T10:32:15.099Z,1006.55
2016-05-05T10:33:15.119Z,1006.51
2016-05-05T10:34:15.121Z,1006.53
2016-05-05T10:35:15.327Z,1006.51
2016-05-05T10:36:15.141Z,1006.5
2016-05-05T10:37:15.144Z,1006.48
2016-05-05T10:38:15.179Z,1006.49
2016-05-05T10:39:15.556Z,1006.43
2016-05-05T10:40:15.168Z,1006.45
2016-05-05T10:41:15.186Z,1006.44
2016-05-05T10:42:15.189Z,1006.4
2016-05-05T10:43:15.207Z,1006.42
2016-05-05T10:44:15.210Z,1006.4
2016-05-05T10:45:15.431Z,1006.39
2016-05-05T10:46:15.231Z,1006.36
2016-05-05T10:47:15.234Z,1006.35
2016-05-05T10:48:15.252Z,1006.34
2016-05-05T10:49:15.254Z,1006.28
2016-05-05T10:50:15.257Z,1006.3
2016-05-05T10:51:15.275Z,1006.3
2016-05-05T10:52:15.278Z,1006.29
2016-05-05T10:53:15.297Z,1006.3
2016-05-05T10:54:15.721Z,1006.3
2016-05-05T10:55:15.489Z,1006.28
2016-05-05T10:56:15.320Z,1006.28
2016-05-05T10:57:15.323Z,1006.24
2016-05-05T10:58:15.325Z,1006.21
2016-05-05T10:59:15.376Z,1006.18
2016-05-05T11:00:15.422Z,1006.2
2016-05-05T11:01:15.468Z,1006.19
2016-05-05T11:02:15.734Z,1006.19
2016-05-05T11:03:16.202Z,1006.17
2016-05-05T11:04:15.618Z,1006.13
2016-05-05T11:05:15.637Z,1006.15
2016-05-05T11:06:15.905Z,1006.14
2016-05-05T11:07:15.721Z,1006.12
2016-05-05T11:09:16.017Z,1006.11
2016-05-05T11:10:15.743Z,1006.08
2016-05-05T11:11:15.751Z,1006.05
2016-05-05T11:12:15.775Z,1006.02
2016-05-05T11:13:15.830Z,1006.02
2016-05-05T11:14:15.804Z,1005.99
2016-05-05T11:15:15.809Z,1006
2016-05-05T11:16:16.047Z,1005.99
2016-05-05T11:17:15.833Z,1005.96
2016-05-05T11:18:15.837Z,1005.95
2016-05-05T11:19:15.842Z,1005.98
2016-05-05T11:20:15.861Z,1005.96
2016-05-05T11:21:15.880Z,1005.96
2016-05-05T11:22:15.884Z,1005.92
2016-05-05T11:23:15.884Z,1005.91
2016-05-05T11:24:15.902Z,1005.93
2016-05-05T11:25:15.905Z,1005.9
2016-05-05T11:26:15.908Z,1005.91
2016-05-05T11:27:15.927Z,1005.93
2016-05-05T11:28:15.946Z,1005.86
2016-05-05T11:29:15.949Z,1005.86
2016-05-05T11:30:15.952Z,1005.85
2016-05-05T11:31:15.969Z,1005.8
2016-05-05T11:32:15.973Z,1005.82
2016-05-05T11:33:15.992Z,1005.79
2016-05-05T11:34:16.197Z,1005.75
2016-05-05T11:35:16.011Z,1005.7
2016-05-05T11:37:16.017Z,1005.72
2016-05-05T11:38:16.035Z,1005.67
2016-05-05T11:39:16.038Z,1005.7
2016-05-05T11:40:16.058Z,1005.69
2016-05-05T11:41:16.060Z,1005.71
2016-05-05T11:42:16.297Z,1005.69
2016-05-05T11:43:16.112Z,1005.66
2016-05-05T11:44:16.083Z,1005.65
2016-05-05T11:45:16.101Z,1005.6
2016-05-05T11:46:16.105Z,1005.6
2016-05-05T11:47:16.123Z,1005.59
2016-05-05T11:48:16.126Z,1005.57
2016-05-05T11:49:16.143Z,1005.54
2016-05-05T11:50:16.162Z,1005.51
2016-05-05T11:51:16.165Z,1005.5
2016-05-05T11:53:16.420Z,1005.49
2016-05-05T11:54:16.204Z,1005.45
2016-05-05T11:55:16.207Z,1005.42
2016-05-05T11:56:16.226Z,1005.4
2016-05-05T11:57:16.259Z,1005.41
2016-05-05T11:58:16.246Z,1005.4
2016-05-05T11:59:16.248Z,1005.41
2016-05-05T12:00:16.267Z,1005.38
2016-05-05T12:01:16.269Z,1005.4
2016-05-05T12:02:16.288Z,1005.36
2016-05-05T12:03:16.291Z,1005.36
2016-05-05T12:04:16.512Z,1005.35
2016-05-05T12:05:16.328Z,1005.38
2016-05-05T12:06:16.330Z,1005.37
2016-05-05T12:07:16.348Z,1005.32
2016-05-05T12:08:16.350Z,1005.35
2016-05-05T12:09:16.369Z,1005.31
2016-05-05T12:10:16.403Z,1005.29
2016-05-05T12:11:16.406Z,1005.3
2016-05-05T12:12:16.393Z,1005.29
2016-05-05T12:13:16.411Z,1005.29
2016-05-05T12:14:16.429Z,1005.27
2016-05-05T12:15:16.432Z,1005.29
2016-05-05T12:16:16.450Z,1005.26
2016-05-05T12:17:16.469Z,1005.23
2016-05-05T12:19:16.490Z,1005.26
2016-05-05T12:20:16.508Z,1005.22
2016-05-05T12:21:16.510Z,1005.2
2016-05-05T12:22:16.513Z,1005.18
2016-05-05T12:23:16.531Z,1005.17